Fort Wayne, Indiana
Current Conditions -  °F | °C
As of 3:54 PM on Thursday 27 Nov 2014 (Local Time) from KFWA Reporting Station
Light Snow Light Snow  
Wind Chill: -8°   Ceiling: 1900
Heat Index: -1°   Visibility: 6mi
Dew Point: -5°   Wind: 18mph
Humidity: 75%   Direction: 270°W
Pressure: 30.26"   Gusts: NA
Location:  41.08°N, 85.1°W
Report Text: KFWA 272054Z 27016KT 6SM -SN OVC019 M01/M05 A3026 RMK AO2 SLP257 P0000 60000 T10111050 53010
Loading
Personal Weather Stations






























Interactive Weather Map New forecast layout! Learn more

10-Day Weather Forecast

Advertisements
Track Severe Weather on mobile